Time;durP1;ratioP1;P1;durP2;ratioP2;P2;SDS_P1;SDS_P2;PMS_P1;PMS_P2;Temp;Humidity;BMP_temperature;BMP_pressure;BME280_temperature;BME280_humidity;BME280_pressure;Samples;Min_cycle;Max_cycle;Signal;HPM_P1;HPM_P2
2023/01/06 00:02:00;;;;;;;34.75;13.75;;;8.10;99.90;;;;;;5061830;28;20048;-50
2023/01/06 00:04:26;;;;;;;35.25;12.90;;;8.20;99.90;;;;;;5066462;28;20025;-49
2023/01/06 00:06:52;;;;;;;37.97;14.93;;;8.20;99.90;;;;;;5070232;28;20017;-50
2023/01/06 00:09:21;;;;;;;30.52;13.65;;;8.30;99.90;;;;;;5071255;28;20021;-46
2023/01/06 00:11:49;;;;;;;34.42;12.48;;;8.30;99.90;;;;;;5070879;28;20040;-49
2023/01/06 00:14:19;;;;;;;39.15;14.27;;;8.30;99.90;;;;;;5071323;28;20025;-47
2023/01/06 00:16:47;;;;;;;37.28;13.45;;;8.30;99.90;;;;;;5070915;28;20508;-48
2023/01/06 00:19:13;;;;;;;46.97;14.43;;;8.30;99.90;;;;;;5070988;28;20490;-48
2023/01/06 00:21:41;;;;;;;31.20;12.75;;;8.30;99.90;;;;;;5067268;28;20028;-49
2023/01/06 00:24:10;;;;;;;38.42;12.98;;;8.30;99.90;;;;;;5061218;28;20051;-50
2023/01/06 00:26:37;;;;;;;36.15;14.00;;;8.20;99.90;;;;;;5071400;28;20052;-50
2023/01/06 00:29:03;;;;;;;43.88;14.40;;;8.20;99.90;;;;;;5071138;28;20020;-47
2023/01/06 00:31:29;;;;;;;40.50;14.88;;;8.20;99.90;;;;;;5070892;28;20013;-48
2023/01/06 00:33:58;;;;;;;35.35;14.10;;;8.20;99.90;;;;;;5070527;28;20013;-50
2023/01/06 00:36:27;;;;;;;33.38;12.98;;;8.20;99.90;;;;;;5070740;28;20048;-50
2023/01/06 00:38:55;;;;;;;41.13;13.70;;;8.20;99.90;;;;;;5070980;28;20512;-47
2023/01/06 00:44:05;;;;;;;36.88;13.48;;;8.20;99.90;;;;;;5053050;28;20036;-48
2023/01/06 00:46:33;;;;;;;31.08;12.02;;;8.20;99.90;;;;;;5050676;28;20025;-47
2023/01/06 00:49:00;;;;;;;35.22;11.70;;;8.20;99.90;;;;;;5050614;28;20037;-47
2023/01/06 00:51:25;;;;;;;26.30;12.02;;;8.30;99.90;;;;;;5049813;28;20079;-47
2023/01/06 00:53:51;;;;;;;24.75;11.73;;;8.30;99.90;;;;;;5049987;28;20021;-48
2023/01/06 00:56:17;;;;;;;38.63;12.80;;;8.30;99.90;;;;;;5050078;28;20176;-50
2023/01/06 00:58:43;;;;;;;29.30;10.77;;;8.30;99.90;;;;;;5050394;28;20480;-50
2023/01/06 01:01:09;;;;;;;32.53;11.85;;;8.30;99.90;;;;;;5050675;28;20021;-50
2023/01/06 01:03:37;;;;;;;35.38;10.90;;;8.30;99.90;;;;;;5048558;28;20020;-47
2023/01/06 01:06:06;;;;;;;29.85;12.43;;;8.30;99.90;;;;;;5048840;28;20029;-48
2023/01/06 01:08:32;;;;;;;43.63;12.27;;;8.30;99.90;;;;;;5050289;28;20036;-50
2023/01/06 01:11:09;;;;;;;42.83;12.95;;;8.20;99.90;;;;;;5050075;28;20029;-47
2023/01/06 01:13:35;;;;;;;35.40;13.55;;;8.30;99.90;;;;;;5059661;28;20029;-47
2023/01/06 01:16:05;;;;;;;32.58;11.93;;;8.30;99.90;;;;;;5068660;28;20111;-50
2023/01/06 01:18:31;;;;;;;29.95;11.55;;;8.30;99.90;;;;;;5066733;28;20029;-47
2023/01/06 01:20:57;;;;;;;32.10;12.70;;;8.30;99.90;;;;;;5062878;28;20715;-47
2023/01/06 01:23:22;;;;;;;38.42;11.63;;;8.30;99.90;;;;;;5069938;28;20040;-50
2023/01/06 01:25:48;;;;;;;53.13;11.77;;;8.30;99.90;;;;;;5070254;28;20035;-48
2023/01/06 01:28:14;;;;;;;29.05;10.38;;;8.30;99.90;;;;;;5064809;28;20381;-47
2023/01/06 01:30:40;;;;;;;30.38;11.02;;;8.30;99.90;;;;;;5061462;28;20490;-49
2023/01/06 01:33:06;;;;;;;25.63;10.70;;;8.30;99.90;;;;;;5069335;28;20067;-49
2023/01/06 01:35:31;;;;;;;29.15;11.50;;;8.40;99.90;;;;;;5069695;28;20016;-47
2023/01/06 01:37:57;;;;;;;37.40;12.15;;;8.30;99.90;;;;;;5068631;28;20039;-47
2023/01/06 01:40:22;;;;;;;34.42;11.57;;;8.30;99.90;;;;;;5069881;28;20024;-48
2023/01/06 01:42:48;;;;;;;27.02;10.63;;;8.30;99.90;;;;;;5068978;28;20024;-50
2023/01/06 01:45:22;;;;;;;31.45;11.18;;;8.30;99.90;;;;;;5069726;28;20102;-50
2023/01/06 01:48:04;;;;;;;34.40;10.50;;;8.40;99.90;;;;;;5070032;28;20040;-47
2023/01/06 01:50:41;;;;;;;34.67;11.35;;;8.40;99.90;;;;;;5068307;28;20012;-47
2023/01/06 01:53:18;;;;;;;32.67;10.38;;;8.40;99.90;;;;;;5069196;28;20045;-47
2023/01/06 01:55:44;;;;;;;34.50;11.43;;;8.40;99.90;;;;;;5068251;28;20115;-48
2023/01/06 01:58:18;;;;;;;32.78;10.85;;;8.40;99.90;;;;;;5065504;28;20549;-48
2023/01/06 02:00:44;;;;;;;25.52;11.27;;;8.40;99.90;;;;;;5060807;28;20024;-48
2023/01/06 02:03:12;;;;;;;36.10;12.43;;;8.40;99.90;;;;;;5065471;28;20443;-49
2023/01/06 02:05:41;;;;;;;28.52;12.05;;;8.30;99.90;;;;;;5058046;28;20035;-47
2023/01/06 02:08:26;;;;;;;32.55;11.90;;;8.20;99.90;;;;;;5069229;28;20489;-47
2023/01/06 02:10:52;;;;;;;33.78;13.45;;;8.10;99.90;;;;;;5068812;28;20478;-50
2023/01/06 02:13:18;;;;;;;28.95;12.50;;;8.10;99.90;;;;;;5068480;28;20039;-47
2023/01/06 02:15:44;;;;;;;34.60;13.80;;;8.20;99.90;;;;;;5068842;28;20071;-48
2023/01/06 02:18:16;;;;;;;36.65;13.90;;;8.10;99.90;;;;;;5067633;28;20033;-47
2023/01/06 02:20:49;;;;;;;37.45;13.18;;;8.20;99.90;;;;;;5068902;28;20044;-49
2023/01/06 02:23:20;;;;;;;32.80;12.35;;;8.20;99.90;;;;;;5068677;28;20042;-47
2023/01/06 02:26:10;;;;;;;37.88;13.90;;;8.10;99.90;;;;;;5068943;28;20444;-47
2023/01/06 02:28:53;;;;;;;35.08;13.70;;;8.10;99.90;;;;;;5068654;28;20316;-47
2023/01/06 02:32:04;;;;;;;34.00;12.98;;;8.10;99.90;;;;;;5069031;28;20037;-48
2023/01/06 02:34:32;;;;;;;28.92;12.60;;;8.20;99.90;;;;;;5001248;28;20034;-46
2023/01/06 02:37:26;;;;;;;44.45;14.70;;;8.10;99.90;;;;;;4983112;28;20116;-49
2023/01/06 02:40:00;;;;;;;32.83;14.18;;;8.10;99.90;;;;;;5051276;28;20033;-47
2023/01/06 02:42:52;;;;;;;29.63;13.48;;;8.10;99.90;;;;;;5061352;28;20022;-50
2023/01/06 02:45:41;;;;;;;35.35;13.35;;;8.20;99.90;;;;;;5064902;28;20028;-49
2023/01/06 02:48:33;;;;;;;36.47;13.70;;;8.10;99.90;;;;;;5067494;28;20028;-48
2023/01/06 02:51:17;;;;;;;30.33;13.25;;;8.10;99.90;;;;;;5068581;28;20453;-47
2023/01/06 02:54:01;;;;;;;39.20;13.45;;;8.20;99.90;;;;;;5068325;28;20029;-47
2023/01/06 02:56:33;;;;;;;30.73;12.55;;;8.40;99.90;;;;;;5068465;28;20098;-50
2023/01/06 02:59:06;;;;;;;45.00;13.63;;;8.30;99.90;;;;;;5068419;28;20081;-46
2023/01/06 03:01:40;;;;;;;38.33;13.57;;;8.30;99.90;;;;;;5068623;28;20066;-48
2023/01/06 03:04:28;;;;;;;31.50;12.60;;;8.30;99.90;;;;;;5068512;28;20013;-48
2023/01/06 03:06:57;;;;;;;39.15;11.60;;;8.30;99.90;;;;;;5065989;28;20037;-49
2023/01/06 03:09:27;;;;;;;35.42;13.38;;;8.20;99.90;;;;;;5048309;28;20021;-50
2023/01/06 03:11:53;;;;;;;31.65;11.55;;;8.20;99.90;;;;;;5051869;28;20036;-46
2023/01/06 03:14:34;;;;;;;32.05;12.75;;;8.20;99.90;;;;;;5059882;28;20385;-48
2023/01/06 03:17:00;;;;;;;;;;;8.20;99.90;;;;;;5073080;28;20012;-50
2023/01/06 03:19:26;;;;;;;33.22;12.13;;;8.20;99.90;;;;;;5072477;28;19911;-49
2023/01/06 03:21:53;;;;;;;24.05;11.38;;;8.20;99.90;;;;;;5072014;28;20016;-48
2023/01/06 03:24:19;;;;;;;29.27;11.35;;;8.30;99.90;;;;;;5071190;28;20025;-49
2023/01/06 03:26:46;;;;;;;30.30;11.35;;;8.30;99.90;;;;;;5069110;28;20021;-49
2023/01/06 03:29:15;;;;;;;27.60;10.68;;;8.30;99.90;;;;;;5063770;28;20020;-48
2023/01/06 03:32:04;;;;;;;33.47;11.88;;;8.30;99.90;;;;;;5070401;28;20425;-50
2023/01/06 03:34:39;;;;;;;26.40;10.52;;;8.40;99.90;;;;;;5071908;28;20085;-46
2023/01/06 03:37:28;;;;;;;20.25;9.80;;;8.30;99.90;;;;;;5070496;28;20021;-49
2023/01/06 03:40:16;;;;;;;21.60;9.75;;;8.40;99.90;;;;;;5065389;28;20091;-50
2023/01/06 03:46:24;;;;;;;21.10;8.63;;;8.40;99.90;;;;;;5072370;28;20035;-47
2023/01/06 03:48:59;;;;;;;22.63;8.60;;;8.40;99.90;;;;;;5029371;28;20128;-47
2023/01/06 03:51:53;;;;;;;19.63;8.88;;;8.40;99.90;;;;;;5029379;28;20103;-50
2023/01/06 03:54:37;;;;;;;17.60;8.30;;;8.50;99.90;;;;;;5035295;28;20102;-46
2023/01/06 03:57:19;;;;;;;18.75;8.27;;;8.50;99.90;;;;;;5053692;28;20429;-48
2023/01/06 03:59:51;;;;;;;18.48;7.70;;;8.60;99.90;;;;;;5051561;28;20033;-49
2023/01/06 04:02:19;;;;;;;26.20;8.75;;;8.60;99.90;;;;;;5051385;28;20021;-48
2023/01/06 04:05:05;;;;;;;17.38;7.07;;;8.70;99.90;;;;;;5051449;28;20024;-47
2023/01/06 04:07:31;;;;;;;17.25;6.90;;;8.70;99.90;;;;;;5051550;28;20033;-49
2023/01/06 04:09:57;;;;;;;14.98;6.30;;;8.90;99.90;;;;;;5062651;28;20103;-47
2023/01/06 04:12:37;;;;;;;17.00;7.10;;;8.90;99.90;;;;;;5070810;28;20043;-48
2023/01/06 04:15:04;;;;;;;;;;;8.80;99.90;;;;;;5072492;28;20028;-48
2023/01/06 04:17:29;;;;;;;16.85;7.88;;;8.90;99.90;;;;;;5070478;28;19905;-47
2023/01/06 04:19:55;;;;;;;19.58;7.47;;;8.90;99.90;;;;;;5071488;28;20062;-47
2023/01/06 04:22:20;;;;;;;19.35;7.40;;;8.90;99.90;;;;;;5070919;28;20394;-49
2023/01/06 04:24:46;;;;;;;17.50;6.50;;;8.90;99.90;;;;;;5071002;28;20044;-49
2023/01/06 04:27:12;;;;;;;18.23;7.28;;;8.90;99.90;;;;;;5069843;28;20483;-50
2023/01/06 04:29:38;;;;;;;16.65;6.75;;;8.90;99.90;;;;;;5069512;28;20029;-51
2023/01/06 04:32:03;;;;;;;15.85;6.63;;;8.90;99.90;;;;;;5070492;28;20051;-48
2023/01/06 04:34:29;;;;;;;15.82;6.78;;;8.90;99.90;;;;;;5060453;28;20023;-47
2023/01/06 04:36:54;;;;;;;18.40;6.47;;;8.90;99.90;;;;;;5070934;28;20021;-47
2023/01/06 04:39:20;;;;;;;15.15;5.85;;;8.90;99.90;;;;;;5070910;28;20435;-49
2023/01/06 04:41:46;;;;;;;13.55;6.32;;;9.00;99.90;;;;;;5070355;28;20032;-50
2023/01/06 04:44:12;;;;;;;14.35;5.68;;;9.00;99.90;;;;;;5070958;28;20461;-50
2023/01/06 04:46:38;;;;;;;13.55;5.68;;;9.10;99.90;;;;;;5071174;28;20028;-50
2023/01/06 04:49:03;;;;;;;14.25;5.70;;;9.10;99.90;;;;;;5070798;28;20481;-48
2023/01/06 04:51:29;;;;;;;11.30;5.80;;;9.10;99.90;;;;;;5070621;28;20021;-50
2023/01/06 04:53:55;;;;;;;14.00;5.28;;;9.10;99.90;;;;;;5070165;28;20026;-50
2023/01/06 04:56:21;;;;;;;12.55;5.30;;;9.10;99.90;;;;;;5070516;28;20035;-49
2023/01/06 04:58:47;;;;;;;11.15;4.68;;;9.10;99.90;;;;;;5070554;28;20028;-51
2023/01/06 05:01:13;;;;;;;10.27;4.47;;;9.10;99.90;;;;;;5070637;28;20021;-50
2023/01/06 05:03:40;;;;;;;14.25;6.05;;;9.10;99.90;;;;;;5064952;28;20070;-49
2023/01/06 05:06:08;;;;;;;13.70;5.15;;;9.10;99.90;;;;;;5064199;28;20064;-48
2023/01/06 05:08:35;;;;;;;13.18;5.35;;;9.10;99.90;;;;;;5061282;28;20409;-49
2023/01/06 05:11:04;;;;;;;16.80;5.22;;;9.20;99.90;;;;;;5063578;28;20020;-50
2023/01/06 05:13:33;;;;;;;14.80;4.53;;;9.20;99.90;;;;;;5070210;28;20106;-50
2023/01/06 05:15:59;;;;;;;15.77;5.40;;;9.20;99.90;;;;;;5069210;28;20024;-50
2023/01/06 05:18:25;;;;;;;15.80;5.40;;;9.20;99.90;;;;;;5070515;28;20016;-48
2023/01/06 05:20:52;;;;;;;8.35;4.53;;;9.20;99.90;;;;;;5070214;28;20371;-47
2023/01/06 05:23:19;;;;;;;12.57;5.60;;;9.20;99.90;;;;;;5069489;28;20032;-49
2023/01/06 05:25:44;;;;;;;9.13;4.57;;;9.20;99.90;;;;;;5068341;28;20086;-47
2023/01/06 05:28:10;;;;;;;13.95;4.65;;;9.20;99.90;;;;;;5069864;28;20520;-47
2023/01/06 05:30:36;;;;;;;9.18;3.72;;;9.30;99.90;;;;;;5068518;28;20111;-48
2023/01/06 05:33:02;;;;;;;15.93;3.80;;;9.30;99.90;;;;;;5069674;28;20031;-50
2023/01/06 05:35:28;;;;;;;7.90;3.22;;;9.30;99.90;;;;;;5069625;28;20486;-50
2023/01/06 05:37:54;;;;;;;9.85;3.45;;;9.40;99.90;;;;;;5065486;28;20020;-50
2023/01/06 05:40:20;;;;;;;9.73;3.33;;;9.30;99.90;;;;;;5061215;28;20012;-49
2023/01/06 05:42:46;;;;;;;10.25;3.05;;;9.30;99.90;;;;;;5069494;28;20473;-47
2023/01/06 05:45:11;;;;;;;8.98;3.03;;;9.30;99.90;;;;;;5069971;28;20377;-47
2023/01/06 05:47:37;;;;;;;5.68;2.97;;;9.30;99.90;;;;;;5069348;28;20363;-47
2023/01/06 05:50:03;;;;;;;10.18;3.17;;;9.40;99.90;;;;;;5069413;28;20040;-47
2023/01/06 05:52:29;;;;;;;8.15;2.95;;;9.50;99.90;;;;;;5068760;28;20025;-50
2023/01/06 05:54:55;;;;;;;5.78;2.60;;;9.50;99.90;;;;;;5068949;28;20413;-48
2023/01/06 05:57:21;;;;;;;8.52;3.17;;;9.50;99.90;;;;;;5068166;28;20516;-48
2023/01/06 05:59:47;;;;;;;3.67;2.40;;;9.50;99.90;;;;;;5067661;28;20195;-48
2023/01/06 06:02:12;;;;;;;6.43;2.75;;;9.60;99.90;;;;;;5068911;28;20021;-48
2023/01/06 06:04:38;;;;;;;6.45;2.35;;;9.50;99.90;;;;;;5069289;28;20021;-47
2023/01/06 06:07:04;;;;;;;7.25;2.88;;;9.60;99.90;;;;;;5069182;28;20024;-47
2023/01/06 06:09:30;;;;;;;8.55;2.35;;;9.60;99.90;;;;;;5058671;28;20079;-48
2023/01/06 06:11:55;;;;;;;4.80;2.30;;;9.60;99.90;;;;;;5068306;28;20039;-50
2023/01/06 06:14:21;;;;;;;6.65;2.20;;;9.70;99.90;;;;;;5068908;28;20107;-47
2023/01/06 06:16:48;;;;;;;6.65;3.13;;;9.80;99.90;;;;;;5068064;28;20052;-48
2023/01/06 06:19:14;;;;;;;6.20;2.35;;;9.70;99.90;;;;;;5069038;28;20021;-48
2023/01/06 06:21:40;;;;;;;6.53;2.10;;;9.80;99.90;;;;;;5067514;28;20021;-48
2023/01/06 06:24:05;;;;;;;7.07;2.28;;;9.80;99.90;;;;;;5067399;28;20477;-48
2023/01/06 06:26:31;;;;;;;5.78;1.90;;;9.80;99.90;;;;;;5068755;28;20374;-49
2023/01/06 06:28:57;;;;;;;4.10;1.90;;;9.80;99.90;;;;;;5069073;28;20493;-51
2023/01/06 06:31:25;;;;;;;4.43;2.00;;;9.80;99.90;;;;;;5067426;28;20048;-49
2023/01/06 06:33:52;;;;;;;4.07;1.80;;;9.90;99.90;;;;;;5068223;28;20111;-49
2023/01/06 06:36:19;;;;;;;3.38;1.70;;;9.90;99.90;;;;;;5062504;28;20106;-49
2023/01/06 06:38:46;;;;;;;8.25;2.72;;;9.90;99.90;;;;;;5059364;28;20049;-48
2023/01/06 06:41:13;;;;;;;4.35;1.65;;;10.00;99.90;;;;;;5055738;28;20029;-50
2023/01/06 06:43:39;;;;;;;5.70;2.15;;;10.00;99.90;;;;;;5056878;28;20407;-49
2023/01/06 06:46:05;;;;;;;7.13;1.45;;;10.00;99.90;;;;;;5067678;28;20043;-48
2023/01/06 06:48:31;;;;;;;5.78;1.55;;;10.00;99.90;;;;;;5068775;28;20025;-47
2023/01/06 06:51:05;;;;;;;4.22;1.52;;;10.00;99.90;;;;;;5067980;28;20566;-47
2023/01/06 06:53:32;;;;;;;4.53;1.40;;;10.10;99.90;;;;;;5068369;28;20028;-48
2023/01/06 06:55:58;;;;;;;5.50;1.52;;;10.10;99.90;;;;;;5068418;28;20073;-49
2023/01/06 06:58:24;;;;;;;5.38;1.48;;;10.20;99.90;;;;;;5068483;28;20024;-48
2023/01/06 07:00:51;;;;;;;6.82;1.60;;;10.20;99.90;;;;;;5068458;28;20025;-50
2023/01/06 07:03:18;;;;;;;2.85;1.35;;;10.10;99.90;;;;;;5068085;28;20399;-48
2023/01/06 07:05:46;;;;;;;5.05;1.52;;;10.20;99.90;;;;;;5068359;28;20029;-48
2023/01/06 07:08:12;;;;;;;5.57;1.83;;;10.20;99.90;;;;;;5068377;28;20032;-47
2023/01/06 07:10:38;;;;;;;3.33;1.60;;;10.20;99.90;;;;;;5068312;28;20558;-47
2023/01/06 07:13:03;;;;;;;6.35;1.70;;;10.20;99.90;;;;;;5052505;28;20036;-47
2023/01/06 07:15:29;;;;;;;4.03;1.77;;;10.20;99.90;;;;;;5065642;28;20082;-51
2023/01/06 07:17:59;;;;;;;5.80;2.08;;;10.30;99.90;;;;;;5068340;28;20143;-50
2023/01/06 07:20:24;;;;;;;8.02;2.33;;;10.20;99.90;;;;;;5068568;28;20024;-48
2023/01/06 07:22:50;;;;;;;7.50;2.10;;;10.20;99.90;;;;;;5067805;28;20028;-49
2023/01/06 07:25:16;;;;;;;4.28;2.20;;;10.20;99.90;;;;;;5068274;28;20067;-48
2023/01/06 07:27:42;;;;;;;10.25;2.50;;;10.20;99.90;;;;;;5068301;28;20025;-51
2023/01/06 07:30:09;;;;;;;5.07;2.30;;;10.20;99.90;;;;;;5068670;28;20029;-48
2023/01/06 07:32:35;;;;;;;6.75;2.45;;;10.20;99.90;;;;;;5068309;28;20043;-48
2023/01/06 07:35:00;;;;;;;7.55;2.95;;;10.10;99.90;;;;;;5060104;28;20033;-47
2023/01/06 07:37:26;;;;;;;8.20;3.03;;;10.20;99.90;;;;;;5059902;28;20127;-47
2023/01/06 07:39:51;;;;;;;6.45;1.98;;;10.10;99.90;;;;;;5068310;28;20173;-47
2023/01/06 07:42:17;;;;;;;4.45;2.25;;;10.20;99.90;;;;;;5067451;28;20035;-47
2023/01/06 07:44:42;;;;;;;5.15;1.70;;;10.20;99.90;;;;;;5068209;28;20013;-48
2023/01/06 07:47:09;;;;;;;9.32;1.88;;;10.20;99.90;;;;;;5068066;28;20037;-47
2023/01/06 07:49:34;;;;;;;6.72;2.10;;;10.20;99.90;;;;;;5068232;28;20017;-50
2023/01/06 07:52:00;;;;;;;3.92;2.17;;;10.20;99.90;;;;;;5048241;28;20090;-50
2023/01/06 07:54:25;;;;;;;6.05;1.90;;;10.10;99.90;;;;;;5047937;28;20025;-48
2023/01/06 07:56:51;;;;;;;4.63;1.60;;;10.20;99.90;;;;;;5047463;28;20033;-48
2023/01/06 07:59:16;;;;;;;8.25;1.60;;;10.20;99.90;;;;;;5047922;28;20113;-50
2023/01/06 08:01:42;;;;;;;6.30;1.55;;;10.20;99.90;;;;;;5049276;28;20021;-46
2023/01/06 08:04:07;;;;;;;3.58;1.70;;;10.20;99.90;;;;;;5050097;28;20087;-46
2023/01/06 08:06:33;;;;;;;3.78;2.08;;;10.20;99.90;;;;;;5061000;28;20096;-48
2023/01/06 08:09:00;;;;;;;5.43;1.80;;;10.30;99.90;;;;;;5066237;28;20029;-50
2023/01/06 08:11:26;;;;;;;6.20;1.52;;;10.20;99.90;;;;;;5059484;28;20151;-47
2023/01/06 08:13:51;;;;;;;4.75;2.00;;;10.20;99.90;;;;;;5070499;28;20095;-49
2023/01/06 08:16:17;;;;;;;4.30;1.77;;;10.20;99.90;;;;;;5071327;28;20370;-47
2023/01/06 08:18:42;;;;;;;4.88;1.77;;;10.20;99.90;;;;;;5071559;28;20052;-48
2023/01/06 08:21:10;;;;;;;5.43;1.80;;;10.30;99.90;;;;;;5071035;28;20219;-46
2023/01/06 08:23:36;;;;;;;3.47;1.73;;;10.30;99.90;;;;;;5070879;28;20028;-46
2023/01/06 08:26:07;;;;;;;2.67;1.80;;;10.40;99.90;;;;;;5069429;28;20110;-47
2023/01/06 08:28:33;;;;;;;4.57;2.00;;;10.30;99.90;;;;;;5060192;28;20033;-47
2023/01/06 08:30:59;;;;;;;7.13;1.85;;;10.30;99.90;;;;;;5071224;28;20029;-45
2023/01/06 08:33:25;;;;;;;8.23;2.38;;;10.30;99.90;;;;;;5070929;28;20020;-48
2023/01/06 08:35:58;;;;;;;7.60;2.45;;;10.30;99.90;;;;;;5069207;28;20532;-46
2023/01/06 08:38:23;;;;;;;7.82;2.88;;;10.30;99.90;;;;;;5069332;28;20462;-47
2023/01/06 08:40:55;;;;;;;3.97;2.33;;;10.30;99.90;;;;;;5070879;28;20074;-46
2023/01/06 08:43:20;;;;;;;6.80;3.08;;;10.40;99.90;;;;;;5070247;28;20085;-50
2023/01/06 08:45:46;;;;;;;6.05;2.53;;;10.40;99.90;;;;;;5070641;28;20028;-46
2023/01/06 08:48:11;;;;;;;8.88;2.95;;;10.40;99.90;;;;;;5070623;28;20028;-46
2023/01/06 08:50:38;;;;;;;4.95;2.13;;;10.50;99.90;;;;;;5070541;28;20039;-47
2023/01/06 08:53:04;;;;;;;6.22;2.85;;;10.50;99.90;;;;;;5070158;28;20513;-46
2023/01/06 08:55:30;;;;;;;9.55;3.05;;;10.60;99.90;;;;;;5070969;28;20028;-46
2023/01/06 08:57:55;;;;;;;4.28;2.25;;;10.50;99.90;;;;;;5062279;28;20033;-49
2023/01/06 09:00:21;;;;;;;4.25;2.45;;;10.50;99.90;;;;;;5065268;28;20382;-47
2023/01/06 09:02:47;;;;;;;7.30;3.38;;;10.60;99.90;;;;;;5068579;28;20386;-48
2023/01/06 09:05:12;;;;;;;5.13;2.63;;;10.50;99.90;;;;;;5070106;28;20248;-46
2023/01/06 09:07:38;;;;;;;4.55;2.83;;;10.60;99.90;;;;;;5070022;28;20104;-47
2023/01/06 09:10:04;;;;;;;4.65;2.35;;;10.60;99.90;;;;;;5070099;28;20332;-46
2023/01/06 09:12:30;;;;;;;5.82;2.53;;;10.60;99.90;;;;;;5068757;28;20042;-47
2023/01/06 09:14:55;;;;;;;4.15;2.30;;;10.50;99.90;;;;;;5070120;28;20111;-48
2023/01/06 09:17:21;;;;;;;4.93;2.65;;;10.60;99.90;;;;;;5070186;28;20108;-49
2023/01/06 09:19:46;;;;;;;6.25;2.85;;;10.60;99.90;;;;;;5070301;28;20058;-48
2023/01/06 09:22:12;;;;;;;3.83;2.25;;;10.70;99.90;;;;;;5069925;28;20660;-47
2023/01/06 09:24:37;;;;;;;10.65;3.40;;;10.70;99.90;;;;;;5069801;28;20029;-48
2023/01/06 09:27:03;;;;;;;7.20;2.35;;;10.80;99.90;;;;;;5064369;28;20032;-50
2023/01/06 09:29:28;;;;;;;4.50;2.13;;;10.80;99.90;;;;;;5058394;28;20468;-47
2023/01/06 09:31:54;;;;;;;3.40;2.15;;;10.90;99.90;;;;;;5068069;28;20088;-47
2023/01/06 09:34:19;;;;;;;7.75;2.50;;;11.00;99.90;;;;;;5066917;28;20024;-47
2023/01/06 09:36:45;;;;;;;6.20;2.40;;;11.10;99.90;;;;;;5068043;28;20098;-49
2023/01/06 09:39:11;;;;;;;5.63;2.05;;;11.10;99.90;;;;;;5068026;28;20093;-47
2023/01/06 09:42:14;;;;;;;4.90;2.30;;;11.20;99.90;;;;;;5064475;28;20025;-47
2023/01/06 09:44:48;;;;;;;6.18;1.95;;;11.30;99.90;;;;;;5061050;28;20039;-47
2023/01/06 09:47:19;;;;;;;4.03;1.75;;;11.20;99.90;;;;;;5068188;28;20051;-50
2023/01/06 09:49:58;;;;;;;6.13;2.33;;;11.10;99.90;;;;;;5069395;28;20420;-47
2023/01/06 09:52:47;;;;;;;2.20;1.73;;;11.10;99.90;;;;;;5068603;28;20035;-47
2023/01/06 09:55:19;;;;;;;8.07;1.75;;;11.20;99.90;;;;;;5069515;28;20111;-48
2023/01/06 09:57:57;;;;;;;5.65;1.77;;;11.30;99.90;;;;;;5069396;28;20017;-47
2023/01/06 10:00:31;;;;;;;10.23;2.47;;;11.40;99.90;;;;;;5069939;28;20028;-48
2023/01/06 10:02:57;;;;;;;3.28;1.48;;;11.40;99.90;;;;;;5069151;28;20031;-49
2023/01/06 10:05:47;;;;;;;2.83;1.95;;;11.50;99.90;;;;;;5068979;28;20028;-47
2023/01/06 10:08:34;;;;;;;6.75;2.05;;;11.60;99.90;;;;;;5069221;28;20491;-47
2023/01/06 10:11:23;;;;;;;4.57;1.45;;;11.70;99.90;;;;;;5068428;28;20074;-47
2023/01/06 10:14:13;;;;;;;4.63;1.80;;;11.90;99.90;;;;;;5048663;28;20028;-50
2023/01/06 10:16:53;;;;;;;3.80;1.50;;;11.80;99.90;;;;;;5048957;28;20029;-47
2023/01/06 10:19:46;;;;;;;1.60;1.30;;;11.70;99.90;;;;;;5047772;28;20052;-48
2023/01/06 10:22:26;;;;;;;2.70;1.45;;;11.60;99.90;;;;;;5048611;28;20508;-48
2023/01/06 10:25:00;;;;;;;2.38;1.48;;;11.50;99.90;;;;;;5047786;28;20021;-47
2023/01/06 10:27:50;;;;;;;2.25;1.10;;;11.50;99.90;;;;;;5049319;28;20051;-46
2023/01/06 10:30:21;;;;;;;2.97;1.65;;;11.50;99.90;;;;;;5045499;28;20475;-50
2023/01/06 10:32:49;;;;;;;5.68;1.60;;;11.40;99.90;;;;;;5048408;28;20071;-46
2023/01/06 10:35:16;;;;;;;4.38;1.30;;;11.30;99.90;;;;;;5049057;28;20025;-47
2023/01/06 10:37:46;;;;;;;2.85;1.45;;;11.20;99.90;;;;;;5049306;28;20026;-48
2023/01/06 10:40:27;;;;;;;5.15;1.98;;;11.10;99.90;;;;;;5047842;28;20071;-47
2023/01/06 10:43:01;;;;;;;2.35;1.20;;;11.10;99.90;;;;;;5055710;28;20036;-47
2023/01/06 10:45:40;;;;;;;3.58;1.17;;;11.20;99.90;;;;;;5065715;28;20058;-48
2023/01/06 10:48:11;;;;;;;2.38;1.10;;;11.10;99.90;;;;;;5067158;28;20035;-50
2023/01/06 10:50:37;;;;;;;4.25;1.23;;;11.10;99.90;;;;;;5068673;28;20021;-53
2023/01/06 10:53:03;;;;;;;1.60;1.20;;;11.10;99.90;;;;;;5068428;28;20247;-48
2023/01/06 10:55:59;;;;;;;2.70;1.30;;;11.10;99.90;;;;;;5067448;28;20025;-50
2023/01/06 10:58:41;;;;;;;5.05;1.20;;;11.10;99.90;;;;;;5068572;28;20028;-51
2023/01/06 11:01:08;;;;;;;4.25;1.38;;;10.90;99.90;;;;;;5069163;28;20377;-50
2023/01/06 11:03:35;;;;;;;1.45;1.10;;;10.90;99.90;;;;;;5068493;28;20092;-50
2023/01/06 11:06:05;;;;;;;2.10;1.20;;;10.90;99.90;;;;;;5068611;28;20060;-49
2023/01/06 11:08:32;;;;;;;4.90;1.42;;;10.90;99.90;;;;;;5068904;28;20120;-49
2023/01/06 11:10:58;;;;;;;3.72;1.27;;;10.90;99.90;;;;;;5050795;28;20368;-50
2023/01/06 11:13:31;;;;;;;4.05;1.30;;;10.90;99.90;;;;;;5050721;28;20553;-48
2023/01/06 11:16:00;;;;;;;1.90;1.40;;;10.90;99.90;;;;;;5051228;28;20020;-48
2023/01/06 11:18:29;;;;;;;2.38;1.52;;;10.90;99.90;;;;;;5053822;28;20229;-50
2023/01/06 11:21:10;;;;;;;2.90;1.83;;;11.00;99.90;;;;;;5050321;28;20482;-50
2023/01/06 11:23:36;;;;;;;;;;;11.00;99.90;;;;;;5061084;28;20028;-51
2023/01/06 11:26:06;;;;;;;2.15;1.35;;;11.00;99.90;;;;;;5053397;28;19912;-51
2023/01/06 11:28:32;;;;;;;1.80;1.55;;;11.00;99.90;;;;;;5048320;28;20075;-51
2023/01/06 11:31:14;;;;;;;2.40;1.30;;;11.00;99.90;;;;;;5060625;28;20029;-50
2023/01/06 11:34:02;;;;;;;2.60;1.52;;;10.90;99.90;;;;;;5053385;28;20097;-51
2023/01/06 11:36:31;;;;;;;3.30;1.63;;;10.80;99.90;;;;;;5055202;28;20030;-50
2023/01/06 11:39:00;;;;;;;4.45;3.15;;;10.70;99.90;;;;;;5061101;28;20017;-50
2023/01/06 11:41:36;;;;;;;4.60;1.75;;;10.60;99.90;;;;;;5054360;28;20392;-49
2023/01/06 11:44:16;;;;;;;1.67;1.30;;;10.50;99.90;;;;;;5056106;28;20016;-49
2023/01/06 11:46:56;;;;;;;7.50;1.73;;;10.50;99.90;;;;;;5059539;28;20452;-47
2023/01/06 11:49:31;;;;;;;;;;;10.40;99.90;;;;;;5052584;28;20056;-48
2023/01/06 11:52:03;;;;;;;3.70;1.75;;;10.50;99.90;;;;;;5054469;28;21185;-49
2023/01/06 11:54:38;;;;;;;5.03;1.80;;;10.50;99.90;;;;;;5056195;28;20326;-48
2023/01/06 11:57:25;;;;;;;2.50;1.83;;;10.50;99.90;;;;;;5049857;28;20070;-48
2023/01/06 11:59:59;;;;;;;3.55;1.48;;;10.30;99.90;;;;;;5061625;28;20107;-47
2023/01/06 12:02:44;;;;;;;4.65;2.17;;;10.30;99.90;;;;;;5052071;28;20249;-49
2023/01/06 12:05:35;;;;;;;7.00;2.03;;;10.20;99.90;;;;;;5065155;28;20075;-51
2023/01/06 12:08:07;;;;;;;4.00;1.90;;;10.20;99.90;;;;;;5045485;28;20048;-48
2023/01/06 12:10:35;;;;;;;4.40;1.73;;;10.20;99.90;;;;;;5056952;28;20697;-50
2023/01/06 12:13:00;;;;;;;3.92;2.13;;;10.20;99.90;;;;;;5060593;28;20109;-49
2023/01/06 12:15:29;;;;;;;3.97;2.13;;;10.10;99.90;;;;;;5054594;28;20033;-49
2023/01/06 12:18:03;;;;;;;2.35;1.75;;;10.10;99.90;;;;;;5052529;28;20074;-51
2023/01/06 12:20:36;;;;;;;3.80;2.10;;;10.10;99.90;;;;;;5059002;28;20013;-49
2023/01/06 12:23:11;;;;;;;5.05;2.05;;;10.10;99.90;;;;;;5051719;28;20025;-48
2023/01/06 12:25:46;;;;;;;3.03;1.85;;;10.20;99.90;;;;;;5063310;28;20070;-47
2023/01/06 12:28:24;;;;;;;4.80;2.15;;;10.20;99.90;;;;;;5056470;28;20048;-50
2023/01/06 12:30:59;;;;;;;2.92;2.20;;;10.30;99.90;;;;;;5052239;28;20027;-47
2023/01/06 12:33:24;;;;;;;6.32;2.05;;;10.30;99.90;;;;;;5059549;28;20500;-50
2023/01/06 12:35:54;;;;;;;5.90;3.03;;;10.40;99.90;;;;;;5047891;28;20111;-49
2023/01/06 12:38:47;;;;;;;6.57;2.03;;;10.50;99.90;;;;;;5055067;28;20020;-48
2023/01/06 12:41:20;;;;;;;4.13;1.88;;;10.60;99.90;;;;;;5054185;28;20020;-48
2023/01/06 12:43:56;;;;;;;2.58;2.00;;;10.70;99.90;;;;;;5052098;28;20041;-51
2023/01/06 12:46:32;;;;;;;2.85;2.05;;;10.70;99.90;;;;;;5052652;28;20048;-51
2023/01/06 12:49:03;;;;;;;3.25;1.85;;;10.80;99.90;;;;;;5048983;28;20418;-50
2023/01/06 12:51:36;;;;;;;1.88;1.70;;;10.90;99.90;;;;;;5050885;28;20844;-49
2023/01/06 12:54:12;;;;;;;2.85;2.53;;;10.90;99.90;;;;;;5061385;28;20052;-48
2023/01/06 12:56:50;;;;;;;2.63;2.05;;;11.00;99.90;;;;;;5054359;28;20056;-49
2023/01/06 12:59:47;;;;;;;4.78;2.00;;;11.20;99.90;;;;;;5061707;28;20258;-51
2023/01/06 13:02:50;;;;;;;3.75;2.03;;;11.30;99.90;;;;;;5051716;28;20494;-49
2023/01/06 13:05:40;;;;;;;4.78;1.90;;;11.40;99.90;;;;;;5052294;28;20074;-48
2023/01/06 13:08:24;;;;;;;2.40;1.75;;;11.40;99.90;;;;;;5053511;28;20441;-50
2023/01/06 13:11:27;;;;;;;3.58;1.70;;;11.50;99.90;;;;;;5048246;28;20550;-50